Terminal Aerodrome Forecast
Issued by NWS Topeka, KS

Home | Current Version | Previous Version | Text Only | Print | Product List | Glossary Off
Versions: 1 2 3 4 5 6 7 8 9 10 11 12 13 14 15

883
FTUS43 KTOP 211603 AAB
TAFTOP
TAF AMD
KTOP 211603Z 2116/2212 20014G24KT P6SM FEW100
     FM220000 19008KT P6SM SCT150
     FM220500 19006KT P6SM VCSH BKN080 WS020/19040KT=

USA.gov is the U.S. government's official web portal to all federal, state and local government web resources and services.